Time;durP1;ratioP1;P1;durP2;ratioP2;P2;SDS_P1;SDS_P2;PMS_P1;PMS_P2;Temp;Humidity;BMP_temperature;BMP_pressure;BME280_temperature;BME280_humidity;BME280_pressure;Samples;Min_cycle;Max_cycle;Signal;HPM_P1;HPM_P2
2021/03/03 00:00:22;;;;;;;;;;;;;;;3.83;79.09;101924.31;1737161;82;21482;-59
2021/03/03 00:02:49;;;;;;;;;;;;;;;3.76;79.08;101917.16;1736921;82;20314;-59
2021/03/03 00:05:17;;;;;;;;;;;;;;;3.71;79.12;101921.07;1736886;82;20278;-59
2021/03/03 00:07:44;;;;;;;;;;;;;;;3.66;79.28;101923.69;1736834;82;20270;-59
2021/03/03 00:10:13;;;;;;;;;;;;;;;3.60;79.54;101928.89;1736787;82;21207;-59
2021/03/03 00:12:41;;;;;;;;;;;;;;;3.56;79.74;101920.45;1736686;82;20243;-59
2021/03/03 00:15:09;;;;;;;;;;;;;;;3.52;79.87;101930.56;1736884;82;20135;-60
2021/03/03 00:17:36;;;;;;;;;;;;;;;3.48;80.15;101937.58;1736837;82;20695;-59
2021/03/03 00:20:06;;;;;;;;;;;;;;;3.44;80.33;101935.77;1736787;82;20218;-59
2021/03/03 00:22:33;;;;;;;;;;;;;;;3.41;80.52;101935.73;1736822;82;22296;-59
2021/03/03 00:25:00;;;;;;;;;;;;;;;3.34;80.81;101932.09;1736777;82;20227;-59
2021/03/03 00:27:28;;;;;;;;;;;;;;;3.30;81.05;101935.13;1736780;82;20115;-59
2021/03/03 00:29:58;;;;;;;;;;;;;;;3.26;81.46;101928.45;1733563;82;20230;-59
2021/03/03 00:32:25;;;;;;;;;;;;;;;3.22;81.83;101933.26;1736794;82;20223;-59
2021/03/03 00:34:53;;;;;;;;;;;;;;;3.18;82.24;101940.68;1736878;82;21164;-59
2021/03/03 00:37:20;;;;;;;;;;;;;;;3.13;82.86;101936.66;1736767;82;20222;-59
2021/03/03 00:39:47;;;;;;;;;;;;;;;3.07;83.38;101933.48;1736780;82;20115;-59
2021/03/03 00:42:15;;;;;;;;;;;;;;;3.03;83.72;101936.95;1736768;82;20218;-59
2021/03/03 00:44:42;;;;;;;;;;;;;;;2.99;84.06;101935.13;1726087;81;20300;-60
2021/03/03 00:47:09;;;;;;;;;;;;;;;2.95;84.28;101933.27;1764010;81;21550;-60
2021/03/03 00:49:37;;;;;;;;;;;;;;;2.92;84.81;101934.14;1763789;81;20249;-60
2021/03/03 00:52:06;;;;;;;;;;;;;;;2.90;85.25;101938.94;1763575;81;20225;-59
2021/03/03 00:54:34;;;;;;;;;;;;;;;2.85;85.52;101949.03;1763866;81;20233;-59
2021/03/03 00:57:02;;;;;;;;;;;;;;;2.80;85.64;101952.47;1763981;81;20268;-60
2021/03/03 00:59:29;;;;;;;;;;;;;;;2.75;85.86;101946.20;1763904;81;21011;-60
2021/03/03 01:01:57;;;;;;;;;;;;;;;2.70;86.29;101959.36;1763855;81;20237;-60
2021/03/03 01:04:24;;;;;;;;;;;;;;;2.68;86.53;101963.33;1733694;81;20267;-60
2021/03/03 01:06:52;;;;;;;;;;;;;;;2.65;86.58;101959.73;1734314;81;20299;-60
2021/03/03 01:09:20;;;;;;;;;;;;;;;2.61;86.73;101961.87;1766761;81;20275;-60
2021/03/03 01:11:48;;;;;;;;;;;;;;;2.56;86.82;101967.98;1766535;81;21217;-60
2021/03/03 01:14:16;;;;;;;;;;;;;;;2.50;86.96;101966.52;1766584;81;20220;-60
2021/03/03 01:16:49;;;;;;;;;;;;;;;2.46;87.01;101965.14;1766556;81;20216;-60
2021/03/03 01:19:14;;;;;;;;;;;;;;;2.41;87.11;101978.28;1766490;81;20224;-60
2021/03/03 01:21:42;;;;;;;;;;;;;;;2.38;87.35;101974.26;1766637;81;20299;-60
2021/03/03 01:24:11;;;;;;;;;;;;;;;2.36;87.64;101972.89;1766734;81;22109;-60
2021/03/03 01:26:38;;;;;;;;;;;;;;;2.36;87.73;101975.98;1766498;81;20216;-60
2021/03/03 01:29:05;;;;;;;;;;;;;;;2.35;87.96;101971.56;1766644;81;20215;-60
2021/03/03 01:31:33;;;;;;;;;;;;;;;2.35;88.06;101976.85;1766605;81;20240;-60
2021/03/03 01:34:00;;;;;;;;;;;;;;;2.34;88.18;101973.75;1766624;81;20228;-60
2021/03/03 01:36:28;;;;;;;;;;;;;;;2.34;88.25;101972.42;1766662;81;21359;-60
2021/03/03 01:38:55;;;;;;;;;;;;;;;2.33;88.28;101967.55;1766451;81;20224;-59
2021/03/03 01:41:22;;;;;;;;;;;;;;;2.33;88.42;101969.31;1766720;81;20213;-60
2021/03/03 01:43:49;;;;;;;;;;;;;;;2.32;88.40;101968.83;1767109;81;20222;-59
2021/03/03 01:46:17;;;;;;;;;;;;;;;2.28;88.36;101975.39;1768490;81;20240;-59
2021/03/03 01:48:45;;;;;;;;;;;;;;;2.27;88.35;101970.95;1768389;81;21390;-59
2021/03/03 01:51:12;;;;;;;;;;;;;;;2.24;88.17;101962.97;1768339;81;20168;-59
2021/03/03 01:53:39;;;;;;;;;;;;;;;2.22;88.20;101971.76;1714350;81;20244;-59
2021/03/03 01:56:06;;;;;;;;;;;;;;;2.19;88.20;101974.31;1768371;81;20220;-59
2021/03/03 01:58:34;;;;;;;;;;;;;;;2.14;88.30;101980.87;1768401;81;20241;-59
2021/03/03 02:01:03;;;;;;;;;;;;;;;2.12;88.37;101974.20;1765296;81;21349;-59
2021/03/03 02:03:31;;;;;;;;;;;;;;;2.11;88.41;101966.26;1768286;81;20236;-59
2021/03/03 02:06:01;;;;;;;;;;;;;;;2.09;88.63;101969.27;1768298;81;20215;-59
2021/03/03 02:08:37;;;;;;;;;;;;;;;2.09;88.73;101978.12;1768515;81;20517;-60
2021/03/03 02:11:17;;;;;;;;;;;;;;;2.09;89.06;101978.53;1768392;81;20212;-60
2021/03/03 02:13:47;;;;;;;;;;;;;;;2.09;89.26;101973.24;1768497;81;22238;-60
2021/03/03 02:16:15;;;;;;;;;;;;;;;2.08;89.41;101972.78;1768344;81;20217;-59
2021/03/03 02:18:43;;;;;;;;;;;;;;;2.10;89.38;101985.61;1768325;81;20240;-59
2021/03/03 02:21:32;;;;;;;;;;;;;;;2.10;89.24;101986.93;1768442;81;20244;-59
2021/03/03 02:24:08;;;;;;;;;;;;;;;2.12;89.04;101987.88;1768325;81;20260;-59
2021/03/03 02:26:36;;;;;;;;;;;;;;;2.12;88.80;101981.27;1768420;81;21375;-59
2021/03/03 02:29:04;;;;;;;;;;;;;;;2.14;88.79;101990.13;1768388;81;20508;-59
2021/03/03 02:31:34;;;;;;;;;;;;;;;2.15;88.61;101984.84;1767874;81;20394;-59
2021/03/03 02:34:03;;;;;;;;;;;;;;;2.19;88.47;101984.48;1768351;81;20296;-59
2021/03/03 02:36:30;;;;;;;;;;;;;;;2.22;88.48;101992.48;1768412;81;20224;-58
2021/03/03 02:38:58;;;;;;;;;;;;;;;2.24;88.38;101993.40;1768376;81;21101;-59
2021/03/03 02:41:25;;;;;;;;;;;;;;;2.25;88.25;101989.89;1768259;81;20244;-59
2021/03/03 02:43:53;;;;;;;;;;;;;;;2.25;88.17;101990.34;1767923;81;20248;-59
2021/03/03 02:46:20;;;;;;;;;;;;;;;2.25;88.03;101992.53;1766742;81;20301;-58
2021/03/03 02:48:47;;;;;;;;;;;;;;;2.23;87.90;101987.64;1736659;81;20241;-58
2021/03/03 02:51:15;;;;;;;;;;;;;;;2.21;87.77;101992.44;1766662;81;21702;-58
2021/03/03 02:53:42;;;;;;;;;;;;;;;2.18;87.61;101992.37;1766736;81;20244;-59
2021/03/03 02:56:10;;;;;;;;;;;;;;;2.16;87.51;102000.31;1766752;81;20232;-59
2021/03/03 02:58:37;;;;;;;;;;;;;;;2.13;87.49;102009.06;1766793;81;20228;-59
2021/03/03 03:01:07;;;;;;;;;;;;;;;2.10;87.58;102013.39;1766667;81;20212;-59
2021/03/03 03:03:55;;;;;;;;;;;;;;;2.07;87.70;102012.92;1765644;81;20272;-60
2021/03/03 03:06:41;;;;;;;;;;;;;;;2.02;87.52;102015.91;1763991;81;20141;-60
2021/03/03 03:09:27;;;;;;;;;;;;;;;1.96;87.45;102011.38;1763953;81;20225;-60
2021/03/03 03:12:13;;;;;;;;;;;;;;;1.92;87.40;102023.17;1764005;81;20275;-59
2021/03/03 03:15:01;;;;;;;;;;;;;;;1.87;87.49;102024.38;1764068;81;20524;-59
2021/03/03 03:17:28;;;;;;;;;;;;;;;1.81;87.58;102030.88;1733738;82;21276;-59
2021/03/03 03:19:55;;;;;;;;;;;;;;;1.77;87.62;102021.09;1763954;81;20149;-59
2021/03/03 03:22:26;;;;;;;;;;;;;;;1.73;87.68;102029.38;1763902;81;20240;-59
2021/03/03 03:24:52;;;;;;;;;;;;;;;1.69;87.93;102029.76;1736631;81;20284;-59
2021/03/03 03:27:19;;;;;;;;;;;;;;;1.66;88.14;102029.70;1763994;81;20224;-59
2021/03/03 03:29:46;;;;;;;;;;;;;;;1.65;88.32;102032.28;1733734;82;21410;-59
2021/03/03 03:32:16;;;;;;;;;;;;;;;1.62;88.43;102035.74;1730381;82;20220;-59
2021/03/03 03:34:43;;;;;;;;;;;;;;;1.59;88.77;102038.32;1764051;81;20507;-59
2021/03/03 03:37:10;;;;;;;;;;;;;;;1.56;88.84;102038.25;1763873;81;20248;-59
2021/03/03 03:39:37;;;;;;;;;;;;;;;1.53;88.92;102040.83;1736298;81;20237;-59
2021/03/03 03:42:05;;;;;;;;;;;;;;;1.50;88.99;102043.41;1763851;81;21775;-59
2021/03/03 03:44:32;;;;;;;;;;;;;;;1.46;89.08;102039.79;1765793;81;20292;-59
2021/03/03 03:46:59;;;;;;;;;;;;;;;1.42;89.20;102044.09;1767221;81;20225;-60
2021/03/03 03:49:27;;;;;;;;;;;;;;;1.39;89.20;102045.35;1767209;81;20236;-59
2021/03/03 03:51:54;;;;;;;;;;;;;;;1.37;89.23;102055.00;1767246;81;20220;-58
2021/03/03 03:54:21;;;;;;;;;;;;;;;1.34;89.39;102049.64;1767203;81;21376;-59
2021/03/03 03:56:49;;;;;;;;;;;;;;;1.31;89.32;102046.93;1767177;81;20220;-59
2021/03/03 03:59:16;;;;;;;;;;;;;;;1.26;89.38;102054.73;1767174;81;20245;-58
2021/03/03 04:01:43;;;;;;;;;;;;;;;1.23;89.39;102052.47;1767241;81;20220;-59
2021/03/03 04:04:11;;;;;;;;;;;;;;;1.19;89.79;102047.94;1770299;80;20241;-58
2021/03/03 04:06:38;;;;;;;;;;;;;;;1.13;89.83;102045.61;1776277;80;21387;-59
2021/03/03 04:09:06;;;;;;;;;;;;;;;1.08;90.03;102045.94;1776104;80;20224;-59
2021/03/03 04:11:33;;;;;;;;;;;;;;;1.07;90.05;102053.80;1776186;80;20244;-59
2021/03/03 04:14:00;;;;;;;;;;;;;;;1.03;90.19;102050.22;1776210;80;20212;-59
2021/03/03 04:16:27;;;;;;;;;;;;;;;1.00;90.41;102052.34;1776249;80;20220;-59
2021/03/03 04:18:55;;;;;;;;;;;;;;;0.98;90.53;102058.02;1776181;80;21386;-59
2021/03/03 04:21:22;;;;;;;;;;;;;;;0.97;90.56;102050.03;1776072;80;20283;-59
2021/03/03 04:23:49;;;;;;;;;;;;;;;0.95;90.75;102058.34;1776283;80;20212;-59
2021/03/03 04:26:17;;;;;;;;;;;;;;;0.94;90.81;102056.16;1776162;80;20220;-59
2021/03/03 04:28:44;;;;;;;;;;;;;;;0.90;90.81;102059.58;1776259;80;20219;-59
2021/03/03 04:31:11;;;;;;;;;;;;;;;0.89;91.00;102067.44;1776167;80;21072;-59
2021/03/03 04:33:39;;;;;;;;;;;;;;;0.87;91.19;102070.47;1776173;80;20229;-59
2021/03/03 04:36:07;;;;;;;;;;;;;;;0.84;91.34;102069.54;1776244;80;20236;-59
2021/03/03 04:38:34;;;;;;;;;;;;;;;0.83;91.37;102067.75;1776190;80;20228;-60
2021/03/03 04:41:02;;;;;;;;;;;;;;;0.83;91.46;102075.67;1776163;80;20231;-59
2021/03/03 04:43:30;;;;;;;;;;;;;;;0.81;91.45;102078.70;1776158;80;21194;-60
2021/03/03 04:45:57;;;;;;;;;;;;;;;0.83;91.51;102082.69;1775676;81;20488;-58
2021/03/03 04:48:25;;;;;;;;;;;;;;;0.83;91.52;102087.56;1775768;81;20434;-58
2021/03/03 04:50:52;;;;;;;;;;;;;;;0.90;91.55;102094.31;1775679;81;20307;-59
2021/03/03 04:53:21;;;;;;;;;;;;;;;1.09;91.42;102093.04;1775670;81;20276;-59
2021/03/03 04:55:48;;;;;;;;;;;;;;;1.50;91.02;102093.64;1744976;81;21205;-59
2021/03/03 04:58:15;;;;;;;;;;;;;;;1.92;89.21;102101.20;1775508;81;20212;-58
2021/03/03 05:00:43;;;;;;;;;;;;;;;2.19;87.19;102110.19;1775682;80;20252;-59
2021/03/03 05:03:12;;;;;;;;;;;;;;;2.33;86.20;102110.48;1771308;81;20407;-58
2021/03/03 05:05:39;;;;;;;;;;;;;;;2.32;85.05;102118.37;1768055;81;20212;-59
2021/03/03 05:08:07;;;;;;;;;;;;;;;2.23;84.58;102130.56;1766636;81;21359;-59
2021/03/03 05:10:34;;;;;;;;;;;;;;;2.11;84.32;102135.60;1766521;81;20237;-58
2021/03/03 05:13:01;;;;;;;;;;;;;;;2.00;84.35;102130.95;1766682;81;20216;-59
2021/03/03 05:15:28;;;;;;;;;;;;;;;1.95;84.53;102141.86;1766664;81;20237;-59
2021/03/03 05:17:56;;;;;;;;;;;;;;;1.92;84.61;102143.11;1766856;81;20212;-59
2021/03/03 05:20:23;;;;;;;;;;;;;;;1.91;84.56;102145.30;1766731;81;21425;-59
2021/03/03 05:22:51;;;;;;;;;;;;;;;1.90;84.59;102143.52;1766761;81;20221;-59
2021/03/03 05:25:18;;;;;;;;;;;;;;;1.93;84.69;102151.52;1766758;81;20133;-59
2021/03/03 05:27:46;;;;;;;;;;;;;;;1.99;84.69;102159.59;1766855;81;20232;-59
2021/03/03 05:30:14;;;;;;;;;;;;;;;2.05;84.48;102149.99;1766744;81;20232;-59
2021/03/03 05:32:42;;;;;;;;;;;;;;;2.16;84.25;102156.44;1766916;81;22235;-60
2021/03/03 05:35:11;;;;;;;;;;;;;;;2.25;83.76;102163.25;1766717;81;20249;-59
2021/03/03 05:37:38;;;;;;;;;;;;;;;2.33;83.21;102156.80;1766801;81;20117;-58
2021/03/03 05:40:06;;;;;;;;;;;;;;;2.44;82.69;102162.33;1766694;81;20233;-59
2021/03/03 05:42:35;;;;;;;;;;;;;;;2.50;82.41;102159.80;1766755;81;20221;-59
2021/03/03 05:45:04;;;;;;;;;;;;;;;2.54;81.84;102164.33;1767984;81;22343;-59
2021/03/03 05:47:33;;;;;;;;;;;;;;;2.61;81.96;102165.78;1768474;81;20508;-59
2021/03/03 05:50:02;;;;;;;;;;;;;;;2.68;81.66;102172.98;1768590;81;20689;-59
2021/03/03 05:52:31;;;;;;;;;;;;;;;2.72;81.23;102178.38;1768445;81;20686;-59
2021/03/03 05:55:03;;;;;;;;;;;;;;;2.76;81.16;102181.95;1768518;81;20488;-59
2021/03/03 05:57:31;;;;;;;;;;;;;;;2.84;81.12;102184.35;1768379;81;21207;-59
2021/03/03 06:00:02;;;;;;;;;;;;;;;2.94;80.63;102177.90;1768428;81;20600;-59
2021/03/03 06:02:33;;;;;;;;;;;;;;;3.04;80.34;102194.46;1768299;81;20113;-58
2021/03/03 06:05:00;;;;;;;;;;;;;;;3.14;79.83;102203.03;1768302;81;20212;-60
2021/03/03 06:07:27;;;;;;;;;;;;;;;3.22;79.52;102203.64;1768372;81;20240;-59
2021/03/03 06:09:54;;;;;;;;;;;;;;;3.28;79.23;102207.27;1768409;81;21205;-59
2021/03/03 06:12:22;;;;;;;;;;;;;;;3.36;79.08;102201.23;1768318;81;20232;-60
2021/03/03 06:14:50;;;;;;;;;;;;;;;3.49;78.45;102215.61;1768340;81;20140;-60
2021/03/03 06:17:18;;;;;;;;;;;;;;;3.63;78.08;102204.79;1768469;81;21314;-60
2021/03/03 06:19:45;;;;;;;;;;;;;;;3.67;77.43;102204.42;1768544;81;21120;-60
2021/03/03 06:22:26;;;;;;;;;;;;;;;3.66;77.53;102206.61;1768486;81;21365;-59
2021/03/03 06:24:57;;;;;;;;;;;;;;;3.66;77.65;102206.20;1768223;81;20233;-60
2021/03/03 06:27:25;;;;;;;;;;;;;;;3.61;77.80;102219.79;1768401;81;20247;-60
2021/03/03 06:30:09;;;;;;;;;;;;;;;3.58;77.90;102207.80;1768364;81;20495;-59
2021/03/03 06:32:54;;;;;;;;;;;;;;;3.56;78.22;102210.86;1738301;81;20215;-60
2021/03/03 06:35:40;;;;;;;;;;;;;;;3.62;78.45;102196.37;1768082;81;21216;-61
2021/03/03 06:38:12;;;;;;;;;;;;;;;3.70;78.47;102210.69;1768299;81;20224;-60
2021/03/03 06:40:56;;;;;;;;;;;;;;;3.84;78.22;102210.00;1768418;81;20232;-59
2021/03/03 06:43:27;;;;;;;;;;;;;;;3.96;77.98;102207.56;1767878;81;20228;-60
2021/03/03 06:45:54;;;;;;;;;;;;;;;4.06;77.33;102216.98;1766736;81;20220;-60
2021/03/03 06:48:41;;;;;;;;;;;;;;;4.13;77.28;102210.92;1766646;81;21205;-60
2021/03/03 06:51:30;;;;;;;;;;;;;;;4.20;76.85;102224.73;1766491;81;20153;-60
2021/03/03 06:54:00;;;;;;;;;;;;;;;4.24;76.36;102221.70;1754361;81;20223;-60
2021/03/03 06:56:45;;;;;;;;;;;;;;;4.33;76.73;102225.81;1767261;81;22064;-60
2021/03/03 06:59:19;;;;;;;;;;;;;;;4.44;76.64;102224.64;1767327;81;20224;-60
2021/03/03 07:01:58;;;;;;;;;;;;;;;4.55;76.25;102220.80;1767472;81;21215;-60
2021/03/03 07:04:39;;;;;;;;;;;;;;;4.64;75.68;102224.03;1769431;80;20148;-58
2021/03/03 07:07:16;;;;;;;;;;;;;;;4.75;75.41;102221.05;1787877;80;20222;-60
2021/03/03 07:10:00;;;;;;;;;;;;;;;4.84;74.93;102219.86;1793048;80;20260;-59
2021/03/03 07:12:30;;;;;;;;;;;;;;;4.92;74.79;102221.71;1793154;80;20263;-59
2021/03/03 07:15:07;;;;;;;;;;;;;;;5.01;74.50;102220.06;1793053;80;21258;-61
2021/03/03 07:17:36;;;;;;;;;;;;;;;5.13;74.31;102223.30;1792978;80;20242;-60
2021/03/03 07:20:08;;;;;;;;;;;;;;;5.23;73.70;102224.30;1793135;80;20222;-60
2021/03/03 07:22:38;;;;;;;;;;;;;;;5.23;73.08;102234.05;1793122;80;20730;-60
2021/03/03 07:25:13;;;;;;;;;;;;;;;5.24;73.13;102235.84;1792720;80;20218;-60
2021/03/03 07:27:41;;;;;;;;;;;;;;;5.28;72.61;102233.66;1793141;80;21374;-60
2021/03/03 07:30:16;;;;;;;;;;;;;;;5.31;72.64;102232.36;1793105;80;20234;-59
2021/03/03 07:32:44;;;;;;;;;;;;;;;5.32;72.75;102236.80;1793059;80;20210;-58
2021/03/03 07:35:14;;;;;;;;;;;;;;;5.38;73.05;102234.66;1789918;80;20838;-60
2021/03/03 07:37:49;;;;;;;;;;;;;;;5.46;73.08;102238.27;1793079;80;20234;-60
2021/03/03 07:40:17;;;;;;;;;;;;;;;5.54;72.39;102240.59;1793202;80;21204;-59
2021/03/03 07:42:53;;;;;;;;;;;;;;;5.62;71.90;102247.30;1792980;80;20266;-61
2021/03/03 07:45:21;;;;;;;;;;;;;;;5.68;72.10;102251.79;1785731;80;20214;-60
2021/03/03 07:47:50;;;;;;;;;;;;;;;5.71;72.06;102247.40;1785586;80;20296;-60
2021/03/03 07:50:20;;;;;;;;;;;;;;;5.74;71.79;102255.41;1785516;80;20222;-60
2021/03/03 07:52:56;;;;;;;;;;;;;;;5.76;71.54;102254.53;1785618;80;21478;-59
2021/03/03 07:55:23;;;;;;;;;;;;;;;5.77;71.54;102239.92;1779412;80;20256;-63
2021/03/03 07:57:52;;;;;;;;;;;;;;;5.83;71.51;102244.38;1769922;80;20227;-60
2021/03/03 08:00:27;;;;;;;;;;;;;;;5.83;71.09;102244.38;1787154;79;20215;-60
2021/03/03 08:02:56;;;;;;;;;;;;;;;5.82;71.06;102262.56;1787229;79;20246;-60
2021/03/03 08:05:40;;;;;;;;;;;;;;;5.83;71.04;102251.03;1783938;79;21272;-59
2021/03/03 08:08:34;;;;;;;;;;;;;;;5.82;70.67;102254.58;1767591;80;20504;-59
2021/03/03 08:11:13;;;;;;;;;;;;;;;5.79;70.63;102251.47;1749184;80;20428;-60
2021/03/03 08:13:44;;;;;;;;;;;;;;;5.83;70.89;102245.71;1764738;80;20224;-60
2021/03/03 08:16:10;;;;;;;;;;;;;;;5.86;71.00;102246.64;1772986;80;20242;-59
2021/03/03 08:18:38;;;;;;;;;;;;;;;5.92;71.22;102243.15;1765522;80;21209;-59
2021/03/03 08:21:10;;;;;;;;;;;;;;;5.98;70.93;102234.33;1737815;81;20221;-59
2021/03/03 08:23:41;;;;;;;;;;;;;;;6.02;71.08;102234.38;1773680;80;20226;-60
2021/03/03 08:26:21;;;;;;;;;;;;;;;6.13;71.18;102241.57;1762071;80;20220;-58
2021/03/03 08:28:50;;;;;;;;;;;;;;;6.24;70.66;102238.53;1772312;80;20212;-59
2021/03/03 08:31:25;;;;;;;;;;;;;;;6.34;69.33;102242.15;1769287;80;22328;-59
2021/03/03 08:33:56;;;;;;;;;;;;;;;6.32;68.96;102243.04;1771164;80;20225;-61
2021/03/03 08:36:29;;;;;;;;;;;;;;;6.32;69.73;102245.70;1759635;80;20225;-59
2021/03/03 08:39:01;;;;;;;;;;;;;;;6.41;69.32;102263.97;1768017;80;20220;-58
2021/03/03 08:41:30;;;;;;;;;;;;;;;6.51;68.53;102252.91;1763742;80;20272;-59
2021/03/03 08:44:16;;;;;;;;;;;;;;;6.55;68.30;102257.82;1770618;80;21381;-59
2021/03/03 08:46:49;;;;;;;;;;;;;;;6.55;67.98;102247.16;1755068;80;20302;-59
2021/03/03 08:49:25;;;;;;;;;;;;;;;6.52;68.11;102247.14;1756477;80;20220;-60
2021/03/03 08:52:10;;;;;;;;;;;;;;;6.55;68.02;102245.41;1774225;80;20225;-59
2021/03/03 08:54:41;;;;;;;;;;;;;;;6.62;68.18;102242.77;1785150;79;20218;-59
2021/03/03 08:57:29;;;;;;;;;;;;;;;6.71;68.18;102250.80;1785582;80;21338;-60
2021/03/03 08:59:56;;;;;;;;;;;;;;;6.75;67.85;102237.95;1785909;80;20238;-60
2021/03/03 09:02:36;;;;;;;;;;;;;;;6.82;68.32;102249.09;1785727;80;33434;-60
2021/03/03 09:05:11;;;;;;;;;;;;;;;6.91;67.57;102242.01;1785928;80;20251;-59
2021/03/03 09:07:39;;;;;;;;;;;;;;;6.95;67.27;102259.80;1785895;80;20215;-60
2021/03/03 09:10:09;;;;;;;;;;;;;;;6.98;66.90;102250.50;1785850;80;21113;-59
2021/03/03 09:12:41;;;;;;;;;;;;;;;7.04;66.80;102241.19;1786093;80;20481;-59
2021/03/03 09:15:11;;;;;;;;;;;;;;;7.15;66.96;102248.77;1786001;80;20274;-60
2021/03/03 09:17:39;;;;;;;;;;;;;;;7.26;66.15;102258.59;1786076;80;20211;-59
2021/03/03 09:20:13;;;;;;;;;;;;;;;7.30;65.72;102259.05;1785830;80;20222;-59
2021/03/03 09:22:44;;;;;;;;;;;;;;;7.30;66.18;102253.28;1786073;80;22096;-60
2021/03/03 09:25:22;;;;;;;;;;;;;;;7.40;65.91;102249.29;1785761;80;20211;-60
2021/03/03 09:27:54;;;;;;;;;;;;;;;7.51;65.63;102253.31;1786150;80;20230;-60
2021/03/03 09:30:22;;;;;;;;;;;;;;;7.59;65.13;102256.87;1785514;80;20219;-60
2021/03/03 09:32:50;;;;;;;;;;;;;;;7.64;65.43;102255.13;1786063;80;20243;-60
2021/03/03 09:35:28;;;;;;;;;;;;;;;7.72;63.65;102246.67;1786040;80;21220;-59
2021/03/03 09:37:56;;;;;;;;;;;;;;;7.79;62.84;102252.01;1786031;80;20258;-60
2021/03/03 09:40:33;;;;;;;;;;;;;;;7.86;62.21;102252.48;1785974;80;20131;-60
2021/03/03 09:43:01;;;;;;;;;;;;;;;7.88;62.65;102250.23;1786022;80;20246;-59
2021/03/03 09:45:29;;;;;;;;;;;;;;;7.96;62.17;102252.04;1762885;80;20217;-60
2021/03/03 09:47:57;;;;;;;;;;;;;;;8.02;61.01;102251.56;1767795;80;21347;-60
2021/03/03 09:50:28;;;;;;;;;;;;;;;8.02;61.42;102242.22;1756735;80;20585;-60
2021/03/03 09:52:55;;;;;;;;;;;;;;;8.03;60.63;102244.00;1754779;81;20283;-60
2021/03/03 09:55:31;;;;;;;;;;;;;;;8.14;60.09;102240.45;1754601;80;20248;-60
2021/03/03 09:57:58;;;;;;;;;;;;;;;8.26;58.91;102235.06;1772042;80;20210;-60
2021/03/03 10:00:27;;;;;;;;;;;;;;;8.35;56.52;102254.67;1771677;80;21313;-59
2021/03/03 10:02:57;;;;;;;;;;;;;;;8.41;56.34;102238.62;1782323;80;20206;-59
2021/03/03 10:05:27;;;;;;;;;;;;;;;8.46;55.93;102248.41;1786143;80;20219;-59
2021/03/03 10:07:57;;;;;;;;;;;;;;;8.47;52.93;102230.58;1785381;80;20214;-59
2021/03/03 10:10:26;;;;;;;;;;;;;;;8.45;53.32;102239.95;1786164;80;20578;-60
2021/03/03 10:12:53;;;;;;;;;;;;;;;8.42;52.84;102237.72;1786232;80;21558;-59
2021/03/03 10:15:23;;;;;;;;;;;;;;;8.50;54.51;102224.38;1786071;80;20215;-59
2021/03/03 10:17:53;;;;;;;;;;;;;;;8.55;53.13;102235.52;1755950;80;20218;-60
2021/03/03 10:20:36;;;;;;;;;;;;;;;8.62;52.72;102224.79;1786187;80;20242;-60
2021/03/03 10:23:13;;;;;;;;;;;;;;;8.70;53.11;102214.95;1786247;80;20218;-60
2021/03/03 10:25:46;;;;;;;;;;;;;;;8.81;50.79;102217.15;1763891;80;21088;-60
2021/03/03 10:28:28;;;;;;;;;;;;;;;8.89;48.92;102204.61;1774712;80;20224;-59
2021/03/03 10:30:58;;;;;;;;;;;;;;;8.94;49.94;102218.41;1774535;80;20227;-59
2021/03/03 10:33:40;;;;;;;;;;;;;;;8.96;50.36;102231.36;1769693;79;20220;-59
2021/03/03 10:36:19;;;;;;;;;;;;;;;8.98;48.81;102232.24;1768970;80;20220;-59
2021/03/03 10:38:49;;;;;;;;;;;;;;;8.95;49.61;102216.17;1773073;80;21596;-58
2021/03/03 10:41:28;;;;;;;;;;;;;;;8.97;49.72;102222.44;1770013;80;20688;-61
2021/03/03 10:43:57;;;;;;;;;;;;;;;9.02;49.33;102240.22;1760405;80;20244;-59
2021/03/03 10:46:26;;;;;;;;;;;;;;;9.00;45.53;102221.95;1762449;80;20486;-59
2021/03/03 10:48:55;;;;;;;;;;;;;;;8.98;47.88;102232.24;1773227;80;20685;-59
2021/03/03 10:51:34;;;;;;;;;;;;;;;8.93;49.39;102226.91;1768581;80;21485;-60
2021/03/03 10:54:03;;;;;;;;;;;;;;;8.93;49.76;102215.30;1767622;80;20217;-61
2021/03/03 10:56:35;;;;;;;;;;;;;;;8.95;49.68;102211.73;1767720;80;20221;-59
2021/03/03 10:59:05;;;;;;;;;;;;;;;9.04;49.36;102204.11;1767731;80;20391;-60
2021/03/03 11:01:46;;;;;;;;;;;;;;;9.15;49.29;102209.41;1777338;80;20252;-60
2021/03/03 11:04:14;;;;;;;;;;;;;;;9.20;48.97;102204.03;1770036;80;21317;-60
2021/03/03 11:06:41;;;;;;;;;;;;;;;9.20;48.67;102204.03;1770225;80;20228;-60
2021/03/03 11:09:14;;;;;;;;;;;;;;;9.19;47.76;102208.95;1763938;81;20237;-61
2021/03/03 11:11:51;;;;;;;;;;;;;;;9.20;47.91;102192.86;1781729;80;20262;-60
2021/03/03 11:14:18;;;;;;;;;;;;;;;9.27;47.08;102193.72;1764164;80;20237;-59
2021/03/03 11:16:49;;;;;;;;;;;;;;;9.32;46.05;102198.59;1775874;80;21505;-59
2021/03/03 11:19:18;;;;;;;;;;;;;;;9.29;46.76;102201.29;1769588;80;20212;-58
2021/03/03 11:21:45;;;;;;;;;;;;;;;9.30;47.43;102189.69;1782244;80;20222;-60
2021/03/03 11:24:13;;;;;;;;;;;;;;;9.33;47.91;102189.66;1740672;81;20664;-60
2021/03/03 11:26:41;;;;;;;;;;;;;;;9.39;47.00;102188.27;1778735;80;20213;-60
2021/03/03 11:29:08;;;;;;;;;;;;;;;9.45;46.36;102193.60;1763810;81;21566;-60
2021/03/03 11:31:37;;;;;;;;;;;;;;;9.48;45.72;102190.46;1785312;80;20263;-60
2021/03/03 11:34:05;;;;;;;;;;;;;;;9.41;45.43;102203.91;1763705;81;20220;-59
2021/03/03 11:36:33;;;;;;;;;;;;;;;9.34;45.25;102198.12;1774850;80;20245;-58
2021/03/03 11:39:01;;;;;;;;;;;;;;;9.29;45.60;102194.59;1781740;80;20488;-60
2021/03/03 11:41:29;;;;;;;;;;;;;;;9.26;45.48;102194.62;1743705;81;21664;-60
2021/03/03 11:43:56;;;;;;;;;;;;;;;9.27;44.75;102187.03;1762727;81;20221;-60
2021/03/03 11:46:23;;;;;;;;;;;;;;;9.23;45.57;102179.92;1763753;81;20260;-60
2021/03/03 11:48:51;;;;;;;;;;;;;;;9.24;46.40;102188.39;1777015;80;20252;-60
2021/03/03 11:51:18;;;;;;;;;;;;;;;9.30;47.47;102188.34;1778996;80;20212;-60
2021/03/03 11:53:47;;;;;;;;;;;;;;;9.36;47.38;102184.28;1761316;81;21283;-59
2021/03/03 11:56:14;;;;;;;;;;;;;;;9.39;47.11;102176.69;1759880;81;20240;-60
2021/03/03 11:58:43;;;;;;;;;;;;;;;9.37;45.88;102190.07;1757112;81;20212;-59
2021/03/03 12:01:10;;;;;;;;;;;;;;;9.35;46.07;102178.48;1748790;81;20251;-60
2021/03/03 12:03:38;;;;;;;;;;;;;;;9.38;45.28;102193.65;1767591;80;20250;-60
2021/03/03 12:06:07;;;;;;;;;;;;;;;9.37;44.43;102190.07;1772972;80;21394;-59
2021/03/03 12:08:37;;;;;;;;;;;;;;;9.37;44.64;102179.36;1773718;80;20230;-59
2021/03/03 12:11:05;;;;;;;;;;;;;;;9.39;43.65;102194.09;1789375;80;20214;-60
2021/03/03 12:13:32;;;;;;;;;;;;;;;9.36;43.80;102186.95;1781130;80;20220;-60
2021/03/03 12:16:01;;;;;;;;;;;;;;;9.37;43.71;102192.75;1766564;80;20212;-60
2021/03/03 12:18:29;;;;;;;;;;;;;;;9.37;42.22;102187.39;1773778;80;21192;-60
2021/03/03 12:20:56;;;;;;;;;;;;;;;9.36;43.33;102185.61;1776004;80;20223;-60
2021/03/03 12:23:24;;;;;;;;;;;;;;;9.35;44.06;102179.83;1787719;80;20220;-60
2021/03/03 12:25:51;;;;;;;;;;;;;;;9.37;44.17;102188.73;1777347;80;21578;-60
2021/03/03 12:28:19;;;;;;;;;;;;;;;9.40;44.16;102182.05;1781327;80;20293;-60
2021/03/03 12:30:49;;;;;;;;;;;;;;;9.45;43.54;102186.91;1773950;80;21648;-52
2021/03/03 12:33:22;;;;;;;;;;;;;;;9.46;43.20;102179.31;1758156;80;20213;-51
2021/03/03 12:35:59;;;;;;;;;;;;;;;9.52;42.58;102174.81;1748227;80;20219;-51
2021/03/03 12:41:55;;;;;;;;;;;;;;;9.54;43.21;102176.59;1798662;78;20231;-51
2021/03/03 12:44:49;;;;;;;;;;;;;;;9.55;44.08;102175.69;1690614;83;21487;-52
2021/03/03 12:47:19;;;;;;;;;;;;;;;9.58;43.93;102179.67;1740551;80;20235;-52
2021/03/03 12:49:54;;;;;;;;;;;;;;;9.61;43.21;102177.39;1737734;81;20489;-53
2021/03/03 12:52:27;;;;;;;;;;;;;;;9.62;42.55;102170.27;1738564;81;21663;-52
2021/03/03 12:54:59;;;;;;;;;;;;;;;9.62;42.95;102175.63;1743159;81;20220;-53
2021/03/03 12:57:33;;;;;;;;;;;;;;;9.62;43.08;102164.48;1737547;81;20617;-52
2021/03/03 13:00:07;;;;;;;;;;;;;;;9.58;42.96;102164.03;1761712;81;20431;-52
2021/03/03 13:02:40;;;;;;;;;;;;;;;9.59;42.17;102168.48;1761917;81;20295;-52
2021/03/03 13:05:13;;;;;;;;;;;;;;;9.61;41.94;102178.73;1736369;81;20220;-51
2021/03/03 13:07:45;;;;;;;;;;;;;;;9.60;42.03;102180.55;1766557;81;20252;-52